sensor_id;sensor_type;location;lat;lon;timestamp;pressure;altitude;pressure_sealevel;temperature;humidity
74778;BME280;63298;53.164;8.610;2022-12-24T00:00:12;100457.44;;;7.10;88.57
74778;BME280;63298;53.164;8.610;2022-12-24T00:02:38;100458.50;;;7.09;88.65
74778;BME280;63298;53.164;8.610;2022-12-24T00:05:04;100462.09;;;7.10;88.74
74778;BME280;63298;53.164;8.610;2022-12-24T00:07:30;100461.25;;;7.09;88.04
74778;BME280;63298;53.164;8.610;2022-12-24T00:09:55;100461.66;;;7.06;88.76
74778;BME280;63298;53.164;8.610;2022-12-24T00:12:20;100459.78;;;7.07;88.30
74778;BME280;63298;53.164;8.610;2022-12-24T00:14:46;100457.03;;;7.07;88.26
74778;BME280;63298;53.164;8.610;2022-12-24T00:17:11;100460.03;;;7.05;88.56
74778;BME280;63298;53.164;8.610;2022-12-24T00:19:36;100448.03;;;7.00;88.72
74778;BME280;63298;53.164;8.610;2022-12-24T00:22:02;100460.66;;;7.01;88.33
74778;BME280;63298;53.164;8.610;2022-12-24T00:24:27;100464.25;;;7.01;88.91
74778;BME280;63298;53.164;8.610;2022-12-24T00:26:52;100460.66;;;7.01;88.79
74778;BME280;63298;53.164;8.610;2022-12-24T00:29:17;100463.66;;;6.99;88.31
74778;BME280;63298;53.164;8.610;2022-12-24T00:31:43;100465.34;;;7.00;88.20
74778;BME280;63298;53.164;8.610;2022-12-24T00:34:08;100470.81;;;7.00;88.24
74778;BME280;63298;53.164;8.610;2022-12-24T00:36:33;100469.72;;;7.01;88.15
74778;BME280;63298;53.164;8.610;2022-12-24T00:38:59;100475.84;;;7.03;88.54
74778;BME280;63298;53.164;8.610;2022-12-24T00:41:24;100482.56;;;7.07;88.61
74778;BME280;63298;53.164;8.610;2022-12-24T00:43:55;100479.22;;;7.05;88.67
74778;BME280;63298;53.164;8.610;2022-12-24T00:46:22;100485.50;;;7.06;88.63
74778;BME280;63298;53.164;8.610;2022-12-24T00:48:48;100481.53;;;7.02;88.38
74778;BME280;63298;53.164;8.610;2022-12-24T00:51:13;100479.84;;;7.01;88.25
74778;BME280;63298;53.164;8.610;2022-12-24T00:53:39;100486.00;;;6.96;88.65
74778;BME280;63298;53.164;8.610;2022-12-24T00:56:05;100486.47;;;6.93;88.38
74778;BME280;63298;53.164;8.610;2022-12-24T00:58:30;100497.22;;;6.94;88.64
74778;BME280;63298;53.164;8.610;2022-12-24T01:00:56;100494.91;;;6.91;88.41
74778;BME280;63298;53.164;8.610;2022-12-24T01:03:21;100488.56;;;6.91;88.42
74778;BME280;63298;53.164;8.610;2022-12-24T01:05:46;100506.28;;;6.95;88.90
74778;BME280;63298;53.164;8.610;2022-12-24T01:08:13;100506.13;;;6.90;88.67
74778;BME280;63298;53.164;8.610;2022-12-24T01:10:39;100505.88;;;6.91;88.51
74778;BME280;63298;53.164;8.610;2022-12-24T01:13:04;100500.63;;;6.90;89.25
74778;BME280;63298;53.164;8.610;2022-12-24T01:15:29;100516.41;;;6.94;88.52
74778;BME280;63298;53.164;8.610;2022-12-24T01:17:56;100518.09;;;6.96;88.42
74778;BME280;63298;53.164;8.610;2022-12-24T01:20:21;100515.75;;;6.99;88.29
74778;BME280;63298;53.164;8.610;2022-12-24T01:22:47;100517.44;;;7.00;88.21
74778;BME280;63298;53.164;8.610;2022-12-24T01:25:12;100525.41;;;7.02;88.34
74778;BME280;63298;53.164;8.610;2022-12-24T01:27:37;100519.16;;;6.94;88.45
74778;BME280;63298;53.164;8.610;2022-12-24T01:30:06;100525.03;;;6.98;89.16
74778;BME280;63298;53.164;8.610;2022-12-24T01:32:32;100529.88;;;6.96;88.68
74778;BME280;63298;53.164;8.610;2022-12-24T01:34:57;100525.03;;;6.98;88.22
74778;BME280;63298;53.164;8.610;2022-12-24T01:37:22;100531.19;;;6.93;88.27
74778;BME280;63298;53.164;8.610;2022-12-24T01:39:48;100530.34;;;6.93;88.52
74778;BME280;63298;53.164;8.610;2022-12-24T01:42:21;100524.47;;;6.89;88.73
74778;BME280;63298;53.164;8.610;2022-12-24T01:44:50;100535.81;;;6.93;88.90
74778;BME280;63298;53.164;8.610;2022-12-24T01:47:26;100530.53;;;6.91;88.20
74778;BME280;63298;53.164;8.610;2022-12-24T01:49:56;100538.56;;;6.93;88.42
74778;BME280;63298;53.164;8.610;2022-12-24T01:52:29;100537.72;;;6.92;88.30
74778;BME280;63298;53.164;8.610;2022-12-24T01:55:15;100535.44;;;6.89;89.18
74778;BME280;63298;53.164;8.610;2022-12-24T01:57:45;100532.44;;;6.91;88.10
74778;BME280;63298;53.164;8.610;2022-12-24T02:00:13;100536.88;;;6.92;88.40
74778;BME280;63298;53.164;8.610;2022-12-24T02:02:43;100529.94;;;6.89;88.30
74778;BME280;63298;53.164;8.610;2022-12-24T02:05:28;100532.69;;;6.89;88.98
74778;BME280;63298;53.164;8.610;2022-12-24T02:07:55;100539.63;;;6.92;88.63
74778;BME280;63298;53.164;8.610;2022-12-24T02:10:20;100548.69;;;6.92;89.05
74778;BME280;63298;53.164;8.610;2022-12-24T02:12:47;100541.34;;;6.86;88.90
74778;BME280;63298;53.164;8.610;2022-12-24T02:15:16;100534.59;;;6.89;88.73
74778;BME280;63298;53.164;8.610;2022-12-24T02:18:06;100543.22;;;6.86;88.48
74778;BME280;63298;53.164;8.610;2022-12-24T02:31:03;100556.34;;;6.84;88.37
74778;BME280;63298;53.164;8.610;2022-12-24T02:36:39;100559.94;;;6.78;89.32
74778;BME280;63298;53.164;8.610;2022-12-24T02:39:13;100573.19;;;6.81;89.28
74778;BME280;63298;53.164;8.610;2022-12-24T02:41:48;100581.00;;;6.84;88.52
74778;BME280;63298;53.164;8.610;2022-12-24T02:44:15;100577.22;;;6.85;88.96
74778;BME280;63298;53.164;8.610;2022-12-24T02:46:42;100563.72;;;6.83;89.04
74778;BME280;63298;53.164;8.610;2022-12-24T02:49:07;100572.56;;;6.85;88.68
74778;BME280;63298;53.164;8.610;2022-12-24T02:51:33;100578.47;;;6.82;88.75
74778;BME280;63298;53.164;8.610;2022-12-24T02:53:58;100583.13;;;6.82;88.53
74778;BME280;63298;53.164;8.610;2022-12-24T03:07:50;100587.75;;;6.81;88.97
74778;BME280;63298;53.164;8.610;2022-12-24T03:10:28;100584.59;;;6.84;88.78
74778;BME280;63298;53.164;8.610;2022-12-24T03:13:00;100585.84;;;6.82;88.81
74778;BME280;63298;53.164;8.610;2022-12-24T03:15:27;100601.47;;;6.81;88.56
74778;BME280;63298;53.164;8.610;2022-12-24T03:17:57;100611.44;;;6.76;89.31
74778;BME280;63298;53.164;8.610;2022-12-24T03:20:36;100617.72;;;6.76;89.79
74778;BME280;63298;53.164;8.610;2022-12-24T03:23:03;100613.53;;;6.74;89.60
74778;BME280;63298;53.164;8.610;2022-12-24T03:25:29;100606.75;;;6.76;88.91
74778;BME280;63298;53.164;8.610;2022-12-24T03:27:57;100615.81;;;6.77;89.22
74778;BME280;63298;53.164;8.610;2022-12-24T03:30:24;100619.81;;;6.81;88.87
74778;BME280;63298;53.164;8.610;2022-12-24T03:32:50;100619.19;;;6.85;88.87
74778;BME280;63298;53.164;8.610;2022-12-24T03:35:15;100620.00;;;6.86;88.83
74778;BME280;63298;53.164;8.610;2022-12-24T03:37:41;100620.44;;;6.89;89.19
74778;BME280;63298;53.164;8.610;2022-12-24T03:40:07;100637.47;;;6.91;88.94
74778;BME280;63298;53.164;8.610;2022-12-24T03:42:33;100642.75;;;6.93;89.09
74778;BME280;63298;53.164;8.610;2022-12-24T03:45:00;100644.84;;;6.91;88.75
74778;BME280;63298;53.164;8.610;2022-12-24T03:47:25;100635.16;;;6.95;89.03
74778;BME280;63298;53.164;8.610;2022-12-24T03:49:51;100636.81;;;6.96;88.78
74778;BME280;63298;53.164;8.610;2022-12-24T03:52:16;100622.50;;;6.94;88.81
74778;BME280;63298;53.164;8.610;2022-12-24T03:54:41;100622.91;;;6.98;88.74
74778;BME280;63298;53.164;8.610;2022-12-24T03:57:07;100631.13;;;6.98;88.50
74778;BME280;63298;53.164;8.610;2022-12-24T03:59:32;100630.72;;;6.94;88.94
74778;BME280;63298;53.164;8.610;2022-12-24T04:01:58;100628.47;;;6.84;89.16
74778;BME280;63298;53.164;8.610;2022-12-24T04:04:24;100649.53;;;6.90;88.71
74778;BME280;63298;53.164;8.610;2022-12-24T04:06:49;100644.84;;;6.91;88.55
74778;BME280;63298;53.164;8.610;2022-12-24T04:09:14;100641.03;;;6.99;88.62
74778;BME280;63298;53.164;8.610;2022-12-24T04:11:40;100647.97;;;7.01;88.83
74778;BME280;63298;53.164;8.610;2022-12-24T04:14:05;100642.91;;;7.05;88.25
74778;BME280;63298;53.164;8.610;2022-12-24T04:16:31;100649.44;;;7.10;88.34
74778;BME280;63298;53.164;8.610;2022-12-24T04:18:56;100651.09;;;7.11;88.49
74778;BME280;63298;53.164;8.610;2022-12-24T04:21:21;100650.88;;;7.13;88.61
74778;BME280;63298;53.164;8.610;2022-12-24T04:23:47;100659.28;;;7.18;88.41
74778;BME280;63298;53.164;8.610;2022-12-24T04:26:13;100664.13;;;7.22;88.46
74778;BME280;63298;53.164;8.610;2022-12-24T04:28:40;100670.25;;;7.24;88.01
74778;BME280;63298;53.164;8.610;2022-12-24T04:31:08;100669.78;;;7.27;88.54
74778;BME280;63298;53.164;8.610;2022-12-24T04:33:35;100666.00;;;7.28;88.24
74778;BME280;63298;53.164;8.610;2022-12-24T04:36:01;100668.53;;;7.30;87.90
74778;BME280;63298;53.164;8.610;2022-12-24T04:38:27;100668.72;;;7.28;88.28
74778;BME280;63298;53.164;8.610;2022-12-24T04:41:03;100667.69;;;7.29;88.42
74778;BME280;63298;53.164;8.610;2022-12-24T04:43:29;100673.59;;;7.26;88.17
74778;BME280;63298;53.164;8.610;2022-12-24T04:45:55;100677.38;;;7.25;88.20
74778;BME280;63298;53.164;8.610;2022-12-24T04:48:20;100687.75;;;7.23;88.65
74778;BME280;63298;53.164;8.610;2022-12-24T04:50:46;100683.53;;;7.21;88.61
74778;BME280;63298;53.164;8.610;2022-12-24T04:53:11;100686.69;;;7.24;88.62
74778;BME280;63298;53.164;8.610;2022-12-24T04:55:37;100683.97;;;7.24;88.65
74778;BME280;63298;53.164;8.610;2022-12-24T04:58:02;100699.13;;;7.27;88.27
74778;BME280;63298;53.164;8.610;2022-12-24T05:00:27;100674.47;;;7.20;88.21
74778;BME280;63298;53.164;8.610;2022-12-24T05:02:52;100693.44;;;7.28;88.34
74778;BME280;63298;53.164;8.610;2022-12-24T05:05:18;100677.38;;;7.25;88.46
74778;BME280;63298;53.164;8.610;2022-12-24T05:07:43;100685.00;;;7.23;88.09
74778;BME280;63298;53.164;8.610;2022-12-24T05:10:09;100683.97;;;7.24;88.24
74778;BME280;63298;53.164;8.610;2022-12-24T05:12:34;100686.50;;;7.19;88.50
74778;BME280;63298;53.164;8.610;2022-12-24T05:14:59;100688.41;;;7.19;88.08
74778;BME280;63298;53.164;8.610;2022-12-24T05:17:24;100689.66;;;7.23;88.41
74778;BME280;63298;53.164;8.610;2022-12-24T05:19:50;100694.69;;;7.26;88.60
74778;BME280;63298;53.164;8.610;2022-12-24T05:22:15;100696.16;;;7.28;88.44
74778;BME280;63298;53.164;8.610;2022-12-24T05:24:40;100697.63;;;7.31;88.34
74778;BME280;63298;53.164;8.610;2022-12-24T05:27:06;100701.84;;;7.33;88.56
74778;BME280;63298;53.164;8.610;2022-12-24T05:29:31;100698.88;;;7.35;88.36
74778;BME280;63298;53.164;8.610;2022-12-24T05:31:56;100701.63;;;7.35;88.46
74778;BME280;63298;53.164;8.610;2022-12-24T05:34:22;100701.19;;;7.38;87.88
74778;BME280;63298;53.164;8.610;2022-12-24T05:36:47;100701.78;;;7.40;88.05
74778;BME280;63298;53.164;8.610;2022-12-24T05:39:16;100705.38;;;7.41;88.31
74778;BME280;63298;53.164;8.610;2022-12-24T05:41:42;100702.03;;;7.38;88.67
74778;BME280;63298;53.164;8.610;2022-12-24T05:44:07;100708.53;;;7.44;88.76
74778;BME280;63298;53.164;8.610;2022-12-24T05:46:33;100724.34;;;7.49;88.68
74778;BME280;63298;53.164;8.610;2022-12-24T05:48:58;100711.50;;;7.43;88.45
74778;BME280;63298;53.164;8.610;2022-12-24T05:51:23;100728.78;;;7.50;88.86
74778;BME280;63298;53.164;8.610;2022-12-24T05:53:50;100730.03;;;7.54;88.58
74778;BME280;63298;53.164;8.610;2022-12-24T05:56:20;100738.00;;;7.55;88.58
74778;BME280;63298;53.164;8.610;2022-12-24T05:58:46;100753.00;;;7.59;88.72
74778;BME280;63298;53.164;8.610;2022-12-24T06:01:13;100747.28;;;7.61;88.81
74778;BME280;63298;53.164;8.610;2022-12-24T06:03:39;100739.66;;;7.63;88.59
74778;BME280;63298;53.164;8.610;2022-12-24T06:06:07;100746.41;;;7.67;88.41
74778;BME280;63298;53.164;8.610;2022-12-24T06:08:34;100738.16;;;7.67;88.58
74778;BME280;63298;53.164;8.610;2022-12-24T06:11:02;100750.38;;;7.71;87.98
74778;BME280;63298;53.164;8.610;2022-12-24T06:13:28;100754.34;;;7.75;88.58
74778;BME280;63298;53.164;8.610;2022-12-24T06:15:58;100756.06;;;7.76;88.03
74778;BME280;63298;53.164;8.610;2022-12-24T06:18:24;100751.00;;;7.73;89.04
74778;BME280;63298;53.164;8.610;2022-12-24T06:20:54;100762.59;;;7.75;89.02
74778;BME280;63298;53.164;8.610;2022-12-24T06:23:20;100762.84;;;7.73;88.57
74778;BME280;63298;53.164;8.610;2022-12-24T06:25:46;100769.78;;;7.76;88.73
74778;BME280;63298;53.164;8.610;2022-12-24T06:28:11;100770.63;;;7.76;88.88
74778;BME280;63298;53.164;8.610;2022-12-24T06:30:37;100772.09;;;7.79;88.99
74778;BME280;63298;53.164;8.610;2022-12-24T06:33:02;100767.22;;;7.81;88.68
74778;BME280;63298;53.164;8.610;2022-12-24T06:35:30;100764.28;;;7.76;88.34
74778;BME280;63298;53.164;8.610;2022-12-24T06:37:55;100772.91;;;7.79;88.92
74778;BME280;63298;53.164;8.610;2022-12-24T06:40:20;100776.31;;;7.81;89.09
74778;BME280;63298;53.164;8.610;2022-12-24T06:42:46;100777.34;;;7.80;89.06
74778;BME280;63298;53.164;8.610;2022-12-24T06:45:11;100779.88;;;7.82;89.00
74778;BME280;63298;53.164;8.610;2022-12-24T06:47:36;100782.44;;;7.77;89.38
74778;BME280;63298;53.164;8.610;2022-12-24T06:50:02;100782.00;;;7.80;90.54
74778;BME280;63298;53.164;8.610;2022-12-24T06:52:27;100780.53;;;7.84;89.91
74778;BME280;63298;53.164;8.610;2022-12-24T06:54:52;100791.06;;;7.87;91.06
74778;BME280;63298;53.164;8.610;2022-12-24T06:57:17;100792.28;;;7.91;90.32
74778;BME280;63298;53.164;8.610;2022-12-24T06:59:43;100803.47;;;7.96;90.34
74778;BME280;63298;53.164;8.610;2022-12-24T07:02:08;100809.34;;;8.00;90.53
74778;BME280;63298;53.164;8.610;2022-12-24T07:04:34;100804.31;;;7.97;91.17
74778;BME280;63298;53.164;8.610;2022-12-24T07:06:59;100819.28;;;8.01;90.87
74778;BME280;63298;53.164;8.610;2022-12-24T07:09:24;100824.78;;;8.01;91.88
74778;BME280;63298;53.164;8.610;2022-12-24T07:11:49;100827.91;;;8.04;91.23
74778;BME280;63298;53.164;8.610;2022-12-24T07:14:15;100843.97;;;8.07;91.35
74778;BME280;63298;53.164;8.610;2022-12-24T07:16:40;100836.59;;;8.01;92.05
74778;BME280;63298;53.164;8.610;2022-12-24T07:19:05;100843.13;;;8.07;91.91
74778;BME280;63298;53.164;8.610;2022-12-24T07:21:31;100850.50;;;8.13;92.26
74778;BME280;63298;53.164;8.610;2022-12-24T07:23:56;100846.63;;;8.20;91.79
74778;BME280;63298;53.164;8.610;2022-12-24T07:26:21;100848.69;;;8.25;91.39
74778;BME280;63298;53.164;8.610;2022-12-24T07:28:46;100851.03;;;8.28;91.51
74778;BME280;63298;53.164;8.610;2022-12-24T07:31:12;100855.03;;;8.25;92.10
74778;BME280;63298;53.164;8.610;2022-12-24T07:33:37;100852.97;;;8.21;92.25
74778;BME280;63298;53.164;8.610;2022-12-24T07:36:07;100865.41;;;8.30;91.45
74778;BME280;63298;53.164;8.610;2022-12-24T07:38:34;100869.63;;;8.33;91.33
74778;BME280;63298;53.164;8.610;2022-12-24T07:41:00;100868.78;;;8.32;91.50
74778;BME280;63298;53.164;8.610;2022-12-24T07:43:26;100874.06;;;8.34;91.61
74778;BME280;63298;53.164;8.610;2022-12-24T07:46:00;100875.34;;;8.31;91.71
74778;BME280;63298;53.164;8.610;2022-12-24T07:48:27;100880.38;;;8.34;91.07
74778;BME280;63298;53.164;8.610;2022-12-24T07:50:53;100877.63;;;8.34;91.32
74778;BME280;63298;53.164;8.610;2022-12-24T07:53:19;100881.69;;;8.32;91.30
74778;BME280;63298;53.164;8.610;2022-12-24T07:55:44;100890.56;;;8.34;90.89
74778;BME280;63298;53.164;8.610;2022-12-24T07:58:09;100893.06;;;8.35;91.23
74778;BME280;63298;53.164;8.610;2022-12-24T08:00:35;100894.13;;;8.34;91.47
74778;BME280;63298;53.164;8.610;2022-12-24T08:03:00;100889.47;;;8.35;91.22
74778;BME280;63298;53.164;8.610;2022-12-24T08:05:26;100889.06;;;8.31;91.25
74778;BME280;63298;53.164;8.610;2022-12-24T08:07:51;100902.16;;;8.36;91.36
74778;BME280;63298;53.164;8.610;2022-12-24T08:10:17;100912.69;;;8.39;91.05
74778;BME280;63298;53.164;8.610;2022-12-24T08:12:42;100917.78;;;8.42;90.60
74778;BME280;63298;53.164;8.610;2022-12-24T08:15:08;100921.19;;;8.37;91.02
74778;BME280;63298;53.164;8.610;2022-12-24T08:17:33;100927.94;;;8.35;91.70
74778;BME280;63298;53.164;8.610;2022-12-24T08:19:58;100925.44;;;8.33;91.61
74778;BME280;63298;53.164;8.610;2022-12-24T08:22:24;100922.25;;;8.36;90.71
74778;BME280;63298;53.164;8.610;2022-12-24T08:24:49;100928.59;;;8.37;90.72
74778;BME280;63298;53.164;8.610;2022-12-24T08:27:15;100923.53;;;8.34;91.25
74778;BME280;63298;53.164;8.610;2022-12-24T08:29:40;100934.69;;;8.39;91.06
74778;BME280;63298;53.164;8.610;2022-12-24T08:32:05;100937.22;;;8.40;91.24
74778;BME280;63298;53.164;8.610;2022-12-24T08:34:30;100943.34;;;8.42;90.67
74778;BME280;63298;53.164;8.610;2022-12-24T08:36:56;100950.13;;;8.40;90.67
74778;BME280;63298;53.164;8.610;2022-12-24T08:39:21;100957.31;;;8.41;90.42
74778;BME280;63298;53.164;8.610;2022-12-24T08:41:46;100965.75;;;8.46;90.61
74778;BME280;63298;53.164;8.610;2022-12-24T08:44:11;100973.78;;;8.47;90.21
74778;BME280;63298;53.164;8.610;2022-12-24T08:46:37;100971.25;;;8.46;90.32
74778;BME280;63298;53.164;8.610;2022-12-24T08:49:02;100975.88;;;8.52;90.63
74778;BME280;63298;53.164;8.610;2022-12-24T08:51:27;100983.06;;;8.53;90.75
74778;BME280;63298;53.164;8.610;2022-12-24T08:53:53;100984.50;;;8.55;90.68
74778;BME280;63298;53.164;8.610;2022-12-24T08:56:18;100985.97;;;8.58;90.65
74778;BME280;63298;53.164;8.610;2022-12-24T08:58:43;100997.78;;;8.58;90.38
74778;BME280;63298;53.164;8.610;2022-12-24T09:01:18;101003.28;;;8.58;90.67
74778;BME280;63298;53.164;8.610;2022-12-24T09:03:43;101008.16;;;8.63;90.56
74778;BME280;63298;53.164;8.610;2022-12-24T09:06:09;101001.38;;;8.65;90.22
74778;BME280;63298;53.164;8.610;2022-12-24T09:08:35;101000.31;;;8.66;90.45
74778;BME280;63298;53.164;8.610;2022-12-24T09:11:09;101001.53;;;8.71;89.97
74778;BME280;63298;53.164;8.610;2022-12-24T09:13:35;101013.38;;;8.78;90.08
74778;BME280;63298;53.164;8.610;2022-12-24T09:16:02;101016.53;;;8.75;90.23
74778;BME280;63298;53.164;8.610;2022-12-24T09:18:27;101018.63;;;8.79;90.46
74778;BME280;63298;53.164;8.610;2022-12-24T09:21:04;101015.03;;;8.79;91.47
74778;BME280;63298;53.164;8.610;2022-12-24T09:23:30;101022.00;;;8.81;90.71
74778;BME280;63298;53.164;8.610;2022-12-24T09:25:56;101028.53;;;8.87;91.02
74778;BME280;63298;53.164;8.610;2022-12-24T09:28:22;101040.38;;;8.87;91.07
74778;BME280;63298;53.164;8.610;2022-12-24T09:30:58;101038.88;;;8.91;91.21
74778;BME280;63298;53.164;8.610;2022-12-24T09:33:25;101048.56;;;8.94;91.43
74778;BME280;63298;53.164;8.610;2022-12-24T09:35:51;101049.00;;;8.97;91.31
74778;BME280;63298;53.164;8.610;2022-12-24T09:38:18;101061.47;;;9.00;91.92
74778;BME280;63298;53.164;8.610;2022-12-24T09:40:43;101066.75;;;9.01;91.57
74778;BME280;63298;53.164;8.610;2022-12-24T09:43:19;101066.75;;;9.01;91.67
74778;BME280;63298;53.164;8.610;2022-12-24T09:48:28;101076.44;;;9.04;91.70
74778;BME280;63298;53.164;8.610;2022-12-24T09:50:59;101068.66;;;9.01;91.75
74778;BME280;63298;53.164;8.610;2022-12-24T09:53:36;101080.91;;;9.05;91.60
74778;BME280;63298;53.164;8.610;2022-12-24T09:56:10;101086.38;;;9.12;91.08
74778;BME280;63298;53.164;8.610;2022-12-24T09:58:48;101080.88;;;9.12;91.57
74778;BME280;63298;53.164;8.610;2022-12-24T10:01:16;101076.78;;;9.21;91.34
74778;BME280;63298;53.164;8.610;2022-12-24T10:03:42;101078.88;;;9.25;90.42
74778;BME280;63298;53.164;8.610;2022-12-24T10:06:19;101080.94;;;9.30;91.18
74778;BME280;63298;53.164;8.610;2022-12-24T10:11:31;101085.94;;;9.39;90.17
74778;BME280;63298;53.164;8.610;2022-12-24T10:14:12;101084.03;;;9.40;90.87
74778;BME280;63298;53.164;8.610;2022-12-24T10:22:18;101093.28;;;9.52;90.47
74778;BME280;63298;53.164;8.610;2022-12-24T10:25:05;101097.94;;;9.51;90.95
74778;BME280;63298;53.164;8.610;2022-12-24T10:27:37;101105.97;;;9.53;90.38
74778;BME280;63298;53.164;8.610;2022-12-24T10:30:13;101098.94;;;9.57;90.32
74778;BME280;63298;53.164;8.610;2022-12-24T10:32:40;101085.78;;;9.59;90.14
74778;BME280;63298;53.164;8.610;2022-12-24T10:35:31;101094.91;;;9.60;89.62
74778;BME280;63298;53.164;8.610;2022-12-24T10:37:59;101098.88;;;9.64;89.35
74778;BME280;63298;53.164;8.610;2022-12-24T10:42:59;101095.47;;;9.68;89.80
74778;BME280;63298;53.164;8.610;2022-12-24T10:45:26;101106.91;;;9.72;89.22
74778;BME280;63298;53.164;8.610;2022-12-24T10:47:58;101109.22;;;9.68;89.36
74778;BME280;63298;53.164;8.610;2022-12-24T10:50:31;101110.47;;;9.72;89.03
74778;BME280;63298;53.164;8.610;2022-12-24T10:53:06;101117.75;;;9.67;88.69
74778;BME280;63298;53.164;8.610;2022-12-24T10:55:37;101113.88;;;9.68;88.99
74778;BME280;63298;53.164;8.610;2022-12-24T10:58:12;101129.56;;;9.67;89.16
74778;BME280;63298;53.164;8.610;2022-12-24T11:00:40;101113.84;;;9.74;89.08
74778;BME280;63298;53.164;8.610;2022-12-24T11:03:19;101115.94;;;9.79;88.73
74778;BME280;63298;53.164;8.610;2022-12-24T11:05:45;101116.13;;;9.77;89.03
74778;BME280;63298;53.164;8.610;2022-12-24T11:08:22;101108.97;;;9.76;88.82
74778;BME280;63298;53.164;8.610;2022-12-24T11:11:08;101117.22;;;9.76;88.68
74778;BME280;63298;53.164;8.610;2022-12-24T11:13:38;101128.25;;;9.76;88.98
74778;BME280;63298;53.164;8.610;2022-12-24T11:16:23;101133.75;;;9.76;88.68
74778;BME280;63298;53.164;8.610;2022-12-24T11:18:52;101116.13;;;9.77;88.86
74778;BME280;63298;53.164;8.610;2022-12-24T11:21:23;101123.50;;;9.83;88.68
74778;BME280;63298;53.164;8.610;2022-12-24T11:23:53;101126.91;;;9.85;88.06
74778;BME280;63298;53.164;8.610;2022-12-24T11:26:23;101126.91;;;9.85;88.71
74778;BME280;63298;53.164;8.610;2022-12-24T11:29:08;101125.22;;;9.84;88.80
74778;BME280;63298;53.164;8.610;2022-12-24T11:31:36;101120.94;;;9.88;88.50
74778;BME280;63298;53.164;8.610;2022-12-24T11:34:26;101123.47;;;9.90;88.20
74778;BME280;63298;53.164;8.610;2022-12-24T11:36:54;101114.50;;;9.94;88.95
74778;BME280;63298;53.164;8.610;2022-12-24T11:39:23;101120.03;;;9.94;88.70
74778;BME280;63298;53.164;8.610;2022-12-24T11:41:49;101119.97;;;10.01;88.13
74778;BME280;63298;53.164;8.610;2022-12-24T11:44:23;101116.53;;;10.06;88.59
74778;BME280;63298;53.164;8.610;2022-12-24T11:46:49;101109.50;;;10.10;88.42
74778;BME280;63298;53.164;8.610;2022-12-24T11:49:22;101116.69;;;10.11;87.67
74778;BME280;63298;53.164;8.610;2022-12-24T11:55:00;101122.56;;;10.21;88.45
74778;BME280;63298;53.164;8.610;2022-12-24T11:57:34;101118.72;;;10.22;87.73
74778;BME280;63298;53.164;8.610;2022-12-24T12:00:02;101117.66;;;10.23;87.50
74778;BME280;63298;53.164;8.610;2022-12-24T12:02:32;101119.81;;;10.21;87.36
74778;BME280;63298;53.164;8.610;2022-12-24T12:05:18;101121.94;;;10.19;86.99
74778;BME280;63298;53.164;8.610;2022-12-24T12:07:47;101130.22;;;10.19;86.79
74778;BME280;63298;53.164;8.610;2022-12-24T12:10:24;101121.53;;;10.15;86.84
74778;BME280;63298;53.164;8.610;2022-12-24T12:13:14;101133.25;;;10.11;87.55
74778;BME280;63298;53.164;8.610;2022-12-24T12:16:00;101137.66;;;10.12;86.88
74778;BME280;63298;53.164;8.610;2022-12-24T12:18:40;101132.59;;;10.09;87.52
74778;BME280;63298;53.164;8.610;2022-12-24T12:21:12;101144.03;;;10.12;87.97
74778;BME280;63298;53.164;8.610;2022-12-24T12:23:46;101144.88;;;10.13;87.28
74778;BME280;63298;53.164;8.610;2022-12-24T12:26:18;101148.47;;;10.13;87.50
74778;BME280;63298;53.164;8.610;2022-12-24T12:28:52;101155.25;;;10.17;87.66
74778;BME280;63298;53.164;8.610;2022-12-24T12:31:33;101156.47;;;10.21;87.40
74778;BME280;63298;53.164;8.610;2022-12-24T12:34:17;101152.44;;;10.24;86.93
74778;BME280;63298;53.164;8.610;2022-12-24T12:36:48;101160.69;;;10.24;87.94
74778;BME280;63298;53.164;8.610;2022-12-24T12:39:15;101159.63;;;10.25;88.08
74778;BME280;63298;53.164;8.610;2022-12-24T12:55:17;101177.03;;;10.25;87.41
74778;BME280;63298;53.164;8.610;2022-12-24T12:57:47;101165.38;;;10.23;87.83
74778;BME280;63298;53.164;8.610;2022-12-24T13:00:17;101173.63;;;10.23;87.15
74778;BME280;63298;53.164;8.610;2022-12-24T13:11:22;101170.94;;;10.17;87.46
74778;BME280;63298;53.164;8.610;2022-12-24T13:14:02;101182.13;;;10.22;87.02
74778;BME280;63298;53.164;8.610;2022-12-24T13:21:43;101183.06;;;10.16;87.32
74778;BME280;63298;53.164;8.610;2022-12-24T13:24:16;101188.09;;;10.19;87.51
74778;BME280;63298;53.164;8.610;2022-12-24T13:26:42;101182.59;;;10.19;87.54
74778;BME280;63298;53.164;8.610;2022-12-24T13:35:30;101192.94;;;10.23;87.42
74778;BME280;63298;53.164;8.610;2022-12-24T13:37:35;101203.75;;;10.25;87.50
74778;BME280;63298;53.164;8.610;2022-12-24T13:43:05;101212.03;;;10.25;87.50
74778;BME280;63298;53.164;8.610;2022-12-24T13:55:57;101211.13;;;10.31;87.04
74778;BME280;63298;53.164;8.610;2022-12-24T13:58:24;101220.16;;;10.38;86.76
74778;BME280;63298;53.164;8.610;2022-12-24T14:01:02;101228.66;;;10.36;86.89
74778;BME280;63298;53.164;8.610;2022-12-24T14:03:44;101214.28;;;10.34;87.16
74778;BME280;63298;53.164;8.610;2022-12-24T14:08:55;101220.63;;;10.35;86.94
74778;BME280;63298;53.164;8.610;2022-12-24T14:11:25;101237.19;;;10.35;86.43
74778;BME280;63298;53.164;8.610;2022-12-24T14:13:54;101234.00;;;10.31;86.43
74778;BME280;63298;53.164;8.610;2022-12-24T14:16:31;101242.75;;;10.28;86.44
74778;BME280;63298;53.164;8.610;2022-12-24T14:22:00;101245.03;;;10.31;87.20
74778;BME280;63298;53.164;8.610;2022-12-24T14:24:34;101235.31;;;10.29;86.95
74778;BME280;63298;53.164;8.610;2022-12-24T14:27:14;101249.72;;;10.31;86.13
74778;BME280;63298;53.164;8.610;2022-12-24T14:30:05;101252.72;;;10.29;86.84
74778;BME280;63298;53.164;8.610;2022-12-24T14:32:36;101265.84;;;10.27;86.61
74778;BME280;63298;53.164;8.610;2022-12-24T14:37:50;101278.63;;;10.22;86.21
74778;BME280;63298;53.164;8.610;2022-12-24T14:40:20;101280.09;;;10.24;85.86